Time;durP1;ratioP1;P1;durP2;ratioP2;P2;SDS_P1;SDS_P2;PMS_P1;PMS_P2;Temp;Humidity;BMP_temperature;BMP_pressure;BME280_temperature;BME280_humidity;BME280_pressure;Samples;Min_cycle;Max_cycle;Signal;HPM_P1;HPM_P2
2022/04/14 00:00:03;;;;;;;;;;;;;;;19.07;28.06;99634.81;4467392;32;34365;-84
2022/04/14 00:02:36;;;;;;;;;;;;;;;18.98;28.17;99634.91;4458969;32;35181;-84
2022/04/14 00:05:04;;;;;;;;;;;;;;;19.06;27.88;99636.56;4460980;32;34486;-80
2022/04/14 00:07:31;;;;;;;;;;;;;;;18.90;28.02;99638.56;4455695;32;33400;-81
2022/04/14 00:09:58;;;;;;;;;;;;;;;19.08;27.58;99631.28;4452610;32;34023;-82
2022/04/14 00:12:26;;;;;;;;;;;;;;;19.17;27.56;99631.16;4444547;32;34159;-80
2022/04/14 00:14:53;;;;;;;;;;;;;;;19.07;27.82;99626.94;4456462;32;34189;-86
2022/04/14 00:17:20;;;;;;;;;;;;;;;18.90;28.21;99632.41;4458899;32;33728;-85
2022/04/14 00:19:47;;;;;;;;;;;;;;;18.90;27.90;99621.88;4459492;32;34033;-85
2022/04/14 00:22:15;;;;;;;;;;;;;;;19.05;27.35;99626.94;4459591;32;34461;-87
2022/04/14 00:24:42;;;;;;;;;;;;;;;19.11;27.52;99620.72;4463308;32;34299;-84
2022/04/14 00:27:09;;;;;;;;;;;;;;;18.85;27.61;99624.59;4460176;32;34808;-82
2022/04/14 00:29:37;;;;;;;;;;;;;;;18.79;27.70;99629.03;4460613;32;34461;-81
2022/04/14 00:32:04;;;;;;;;;;;;;;;18.88;27.69;99629.81;4469710;32;34714;-85
2022/04/14 00:34:32;;;;;;;;;;;;;;;18.71;27.32;99622.16;4471759;32;33243;-85
2022/04/14 00:36:59;;;;;;;;;;;;;;;18.72;27.68;99620.41;4463521;32;34298;-85
2022/04/14 00:39:27;;;;;;;;;;;;;;;18.81;27.74;99622.91;4451672;32;34108;-81
2022/04/14 00:41:54;;;;;;;;;;;;;;;18.77;27.57;99628.22;4459654;32;33635;-83
2022/04/14 00:44:21;;;;;;;;;;;;;;;18.42;28.10;99625.09;4460671;32;33722;-81
2022/04/14 00:46:48;;;;;;;;;;;;;;;18.53;28.25;99621.50;4459033;32;34268;-82
2022/04/14 00:49:16;;;;;;;;;;;;;;;18.66;28.42;99631.81;4467407;32;33952;-84
2022/04/14 00:51:43;;;;;;;;;;;;;;;18.69;28.42;99630.91;4457068;32;34533;-85
2022/04/14 00:54:10;;;;;;;;;;;;;;;18.76;27.92;99618.59;4466611;32;33638;-86
2022/04/14 00:56:37;;;;;;;;;;;;;;;18.64;28.49;99614.34;4465963;32;34199;-85
2022/04/14 00:59:04;;;;;;;;;;;;;;;18.51;28.54;99618.00;4457005;32;34373;-83
2022/04/14 01:01:32;;;;;;;;;;;;;;;18.44;28.61;99617.19;4463930;32;34529;-86
2022/04/14 01:03:59;;;;;;;;;;;;;;;18.51;28.16;99618.00;4463302;32;33242;-86
2022/04/14 01:06:27;;;;;;;;;;;;;;;18.52;28.19;99619.72;4463227;32;34860;-86
2022/04/14 01:11:40;;;;;;;;;;;;;;;18.36;28.57;99619.06;4463515;32;35234;-86
2022/04/14 01:14:08;;;;;;;;;;;;;;;18.21;28.80;99622.72;4450214;32;34275;-82
2022/04/14 01:16:35;;;;;;;;;;;;;;;18.33;28.75;99619.94;4466956;32;34971;-85
2022/04/14 01:19:03;;;;;;;;;;;;;;;18.33;28.86;99616.47;4462825;32;34507;-83
2022/04/14 01:21:33;;;;;;;;;;;;;;;18.44;28.41;99620.69;4462844;32;34488;-83
2022/04/14 01:24:02;;;;;;;;;;;;;;;18.42;28.47;99619.84;4451350;32;33633;-84
2022/04/14 01:26:29;;;;;;;;;;;;;;;18.25;29.22;99616.53;4450528;32;33920;-85
2022/04/14 01:28:56;;;;;;;;;;;;;;;18.25;29.13;99616.53;4451166;32;33509;-84
2022/04/14 01:31:24;;;;;;;;;;;;;;;18.25;28.78;99611.28;4467333;32;34614;-84
2022/04/14 01:33:51;;;;;;;;;;;;;;;18.30;28.85;99612.13;4460786;32;34077;-85
2022/04/14 01:36:19;;;;;;;;;;;;;;;18.25;29.17;99616.53;4455608;32;34234;-86
2022/04/14 01:38:47;;;;;;;;;;;;;;;18.40;29.00;99611.13;4457748;32;34386;-83
2022/04/14 01:41:14;;;;;;;;;;;;;;;18.38;28.95;99612.91;4465352;32;34614;-82
2022/04/14 01:43:43;;;;;;;;;;;;;;;18.13;29.33;99632.44;4463695;32;33755;-83
2022/04/14 01:46:10;;;;;;;;;;;;;;;18.27;29.08;99620.03;4459942;32;34965;-87
2022/04/14 01:48:38;;;;;;;;;;;;;;;18.17;28.93;99621.88;4459165;32;34453;-82
2022/04/14 01:51:05;;;;;;;;;;;;;;;18.12;29.30;99625.44;4463990;32;34825;-83
2022/04/14 01:53:33;;;;;;;;;;;;;;;18.07;28.94;99628.13;4465201;32;33880;-83
2022/04/14 01:56:00;;;;;;;;;;;;;;;18.26;28.93;99620.94;4460430;32;34133;-82
2022/04/14 01:58:27;;;;;;;;;;;;;;;18.28;28.93;99621.75;4458041;32;34073;-83
2022/04/14 02:00:54;;;;;;;;;;;;;;;18.15;29.00;99615.78;4451215;32;34321;-83
2022/04/14 02:03:22;;;;;;;;;;;;;;;18.14;29.13;99631.53;4451142;32;34431;-83
2022/04/14 02:05:49;;;;;;;;;;;;;;;18.12;29.18;99630.69;4457880;32;33942;-83
2022/04/14 02:08:16;;;;;;;;;;;;;;;18.07;29.36;99630.75;4453842;32;34261;-84
2022/04/14 02:10:44;;;;;;;;;;;;;;;18.17;29.08;99616.62;4456888;32;35684;-86
2022/04/14 02:13:11;;;;;;;;;;;;;;;18.01;29.58;99622.94;4460936;32;35007;-84
2022/04/14 02:15:38;;;;;;;;;;;;;;;18.00;29.28;99629.06;4466483;32;33813;-83
2022/04/14 02:18:05;;;;;;;;;;;;;;;18.07;29.35;99627.22;4462941;32;34809;-82
2022/04/14 02:20:33;;;;;;;;;;;;;;;18.09;29.74;99628.97;4461676;32;34320;-83
2022/04/14 02:23:00;;;;;;;;;;;;;;;17.97;30.09;99622.09;4464654;32;33334;-82
2022/04/14 02:25:28;;;;;;;;;;;;;;;17.97;30.02;99621.22;4463172;32;34166;-83
2022/04/14 02:27:55;;;;;;;;;;;;;;;17.88;29.79;99626.53;4459042;32;34427;-83
2022/04/14 02:30:22;;;;;;;;;;;;;;;17.66;30.00;99628.50;4457118;32;35004;-83
2022/04/14 02:32:49;;;;;;;;;;;;;;;17.73;29.50;99628.41;4464660;32;34156;-83
2022/04/14 02:35:17;;;;;;;;;;;;;;;17.90;29.19;99633.53;4454516;32;34819;-84
2022/04/14 02:37:44;;;;;;;;;;;;;;;17.80;29.73;99634.47;4463839;32;35325;-85
2022/04/14 02:40:11;;;;;;;;;;;;;;;17.96;29.76;99633.47;4463632;32;34150;-82
2022/04/14 02:42:39;;;;;;;;;;;;;;;17.73;29.99;99628.41;4447139;32;33771;-83
2022/04/14 02:45:06;;;;;;;;;;;;;;;17.69;29.69;99631.06;4447782;32;34481;-83
2022/04/14 02:47:35;;;;;;;;;;;;;;;17.85;29.68;99627.47;4462785;32;35090;-82
2022/04/14 02:50:03;;;;;;;;;;;;;;;17.87;29.79;99624.81;4468786;32;34380;-82
2022/04/14 02:52:30;;;;;;;;;;;;;;;17.92;29.35;99623.91;4452834;32;33055;-82
2022/04/14 02:54:57;;;;;;;;;;;;;;;17.86;29.38;99623.09;4455113;32;34780;-83
2022/04/14 02:57:25;;;;;;;;;;;;;;;17.84;29.26;99620.50;4465912;32;33929;-82
2022/04/14 02:59:52;;;;;;;;;;;;;;;17.87;29.24;99623.06;4462013;32;34157;-82
2022/04/14 03:02:19;;;;;;;;;;;;;;;17.66;29.85;99616.25;4452842;32;32813;-83
2022/04/14 03:04:47;;;;;;;;;;;;;;;17.61;29.89;99622.38;4452504;32;33929;-82
2022/04/14 03:07:15;;;;;;;;;;;;;;;17.63;29.72;99616.25;4454277;32;35064;-84
2022/04/14 03:09:42;;;;;;;;;;;;;;;17.56;29.57;99618.94;4455455;32;33838;-81
2022/04/14 03:12:10;;;;;;;;;;;;;;;17.47;29.39;99623.38;4453284;32;33471;-83
2022/04/14 03:14:37;;;;;;;;;;;;;;;17.66;29.50;99623.25;4467718;32;34005;-83
2022/04/14 03:17:04;;;;;;;;;;;;;;;17.49;29.46;99624.22;4458818;32;34386;-80
2022/04/14 03:19:32;;;;;;;;;;;;;;;17.34;29.86;99624.34;4466041;32;34601;-81
2022/04/14 03:21:59;;;;;;;;;;;;;;;17.31;29.82;99623.50;4467946;32;33598;-80
2022/04/14 03:24:26;;;;;;;;;;;;;;;17.45;29.41;99627.75;4468209;32;34857;-82
2022/04/14 03:26:53;;;;;;;;;;;;;;;17.54;29.23;99631.19;4457522;32;34395;-83
2022/04/14 03:29:20;;;;;;;;;;;;;;;17.51;29.49;99619.84;4465920;32;34577;-83
2022/04/14 03:31:47;;;;;;;;;;;;;;;17.42;29.83;99619.06;4458779;32;33269;-83
2022/04/14 03:34:15;;;;;;;;;;;;;;;17.46;29.87;99619.03;4461346;32;34177;-84
2022/04/14 03:36:42;;;;;;;;;;;;;;;17.42;29.90;99626.91;4467409;32;34293;-84
2022/04/14 03:39:09;;;;;;;;;;;;;;;17.48;29.60;99619.00;4456321;32;34396;-84
2022/04/14 03:41:37;;;;;;;;;;;;;;;17.48;29.62;99627.75;4459115;32;33607;-87
2022/04/14 03:44:04;;;;;;;;;;;;;;;17.41;29.47;99623.41;4461140;32;35072;-83
2022/04/14 03:46:31;;;;;;;;;;;;;;;17.42;29.28;99632.16;4455862;32;35197;-84
2022/04/14 03:48:59;;;;;;;;;;;;;;;17.42;29.27;99640.88;4462118;32;34529;-84
2022/04/14 03:51:26;;;;;;;;;;;;;;;17.30;29.69;99634.87;4468017;32;34443;-83
2022/04/14 03:53:53;;;;;;;;;;;;;;;17.14;30.14;99637.59;4461079;32;34190;-83
2022/04/14 03:56:21;;;;;;;;;;;;;;;17.27;29.98;99638.38;4455618;32;33956;-84
2022/04/14 03:58:48;;;;;;;;;;;;;;;17.05;30.26;99640.28;4459236;32;33956;-84
2022/04/14 04:01:15;;;;;;;;;;;;;;;17.09;30.14;99643.75;4452549;32;33148;-84
2022/04/14 04:03:43;;;;;;;;;;;;;;;17.16;29.90;99634.94;4452049;32;34622;-84
2022/04/14 04:06:10;;;;;;;;;;;;;;;17.17;29.99;99639.34;4454416;32;34380;-85
2022/04/14 04:08:37;;;;;;;;;;;;;;;17.28;29.50;99632.28;4459839;32;34984;-85
2022/04/14 04:11:05;;;;;;;;;;;;;;;17.24;29.54;99641.91;4452290;32;34340;-85
2022/04/14 04:13:32;;;;;;;;;;;;;;;17.09;30.04;99642.00;4466153;32;34760;-84
2022/04/14 04:15:59;;;;;;;;;;;;;;;17.12;29.98;99638.47;4465524;32;34309;-85
2022/04/14 04:18:29;;;;;;;;;;;;;;;17.22;29.71;99648.03;4467246;32;35149;-85
2022/04/14 04:20:56;;;;;;;;;;;;;;;17.14;30.16;99647.22;4467829;32;33990;-85
2022/04/14 04:23:23;;;;;;;;;;;;;;;17.18;30.44;99643.69;4467311;32;35014;-85
2022/04/14 04:25:51;;;;;;;;;;;;;;;17.16;30.27;99637.56;4464669;32;34211;-87
2022/04/14 04:28:18;;;;;;;;;;;;;;;17.10;30.36;99645.50;4455432;32;34301;-86
2022/04/14 04:30:45;;;;;;;;;;;;;;;17.20;30.48;99644.56;4453658;32;33693;-85
2022/04/14 04:33:12;;;;;;;;;;;;;;;17.26;30.16;99648.00;4452991;32;35066;-85
2022/04/14 04:35:40;;;;;;;;;;;;;;;17.18;30.15;99644.56;4465320;32;34919;-85
2022/04/14 04:38:07;;;;;;;;;;;;;;;17.09;30.82;99643.75;4467536;32;35117;-85
2022/04/14 04:40:34;;;;;;;;;;;;;;;17.06;30.61;99641.16;4466553;32;34371;-85
2022/04/14 04:43:02;;;;;;;;;;;;;;;17.09;30.89;99649.00;4453542;32;34865;-86
2022/04/14 04:45:30;;;;;;;;;;;;;;;17.27;30.36;99654.09;4461867;32;34152;-84
2022/04/14 04:47:57;;;;;;;;;;;;;;;17.67;29.77;99648.56;4458706;32;34358;-84
2022/04/14 04:50:24;;;;;;;;;;;;;;;18.06;29.41;99651.75;4467622;32;34031;-84
2022/04/14 04:52:52;;;;;;;;;;;;;;;18.39;29.69;99647.91;4460553;32;35062;-83
2022/04/14 04:55:19;;;;;;;;;;;;;;;18.43;28.87;99655.72;4455696;32;35232;-83
2022/04/14 04:57:46;;;;;;;;;;;;;;;18.20;29.50;99660.34;4452988;32;34284;-84
2022/04/14 05:00:13;;;;;;;;;;;;;;;18.15;29.78;99668.28;4467160;32;33609;-84
2022/04/14 05:02:41;;;;;;;;;;;;;;;17.96;29.84;99662.34;4460011;32;34190;-83
2022/04/14 05:05:08;;;;;;;;;;;;;;;18.06;29.78;99665.72;4441044;32;34282;-84
2022/04/14 05:07:35;;;;;;;;;;;;;;;18.07;30.02;99675.34;4459950;32;34469;-86
2022/04/14 05:10:03;;;;;;;;;;;;;;;18.13;29.49;99679.66;4427696;32;775482;-83
2022/04/14 05:12:30;;;;;;;;;;;;;;;17.95;30.47;99670.19;4452568;32;35551;-82
2022/04/14 05:14:57;;;;;;;;;;;;;;;18.13;30.08;99674.41;4463963;32;33968;-83
2022/04/14 05:17:25;;;;;;;;;;;;;;;18.21;30.08;99673.44;4466280;32;35437;-83
2022/04/14 05:19:52;;;;;;;;;;;;;;;18.42;29.45;99682.00;4453127;32;33074;-82
2022/04/14 05:22:19;;;;;;;;;;;;;;;18.56;29.38;99666.97;4451894;32;33767;-83
2022/04/14 05:24:46;;;;;;;;;;;;;;;18.93;28.94;99669.16;4457047;32;33989;-83
2022/04/14 05:27:13;;;;;;;;;;;;;;;19.24;28.58;99669.59;4454036;32;34040;-82
2022/04/14 05:29:41;;;;;;;;;;;;;;;19.22;29.11;99673.16;4460177;32;34105;-83
2022/04/14 05:32:08;;;;;;;;;;;;;;;19.59;28.28;99671.72;4453045;32;34264;-82
2022/04/14 05:34:36;;;;;;;;;;;;;;;19.86;27.94;99670.41;4461061;32;35275;-82
2022/04/14 05:37:03;;;;;;;;;;;;;;;18.52;31.49;99683.63;4456564;32;33895;-82
2022/04/14 05:39:30;;;;;;;;;;;;;;;19.43;28.91;99681.59;4453677;32;33147;-82
2022/04/14 05:41:57;;;;;;;;;;;;;;;19.26;30.21;99688.84;4455666;32;34159;-85
2022/04/14 05:44:25;;;;;;;;;;;;;;;19.72;29.13;99688.19;4451440;32;33875;-84
2022/04/14 05:46:52;;;;;;;;;;;;;;;19.92;28.87;99695.75;4451985;32;34840;-83
2022/04/14 05:49:20;;;;;;;;;;;;;;;20.46;28.11;99693.03;4460108;32;33077;-85
2022/04/14 05:51:47;;;;;;;;;;;;;;;20.52;27.57;99682.41;4456610;32;33939;-83
2022/04/14 05:54:15;;;;;;;;;;;;;;;20.63;27.27;99679.56;4456940;32;34096;-84
2022/04/14 05:56:42;;;;;;;;;;;;;;;19.78;28.05;99684.59;4451157;32;34364;-85
2022/04/14 05:59:16;;;;;;;;;;;;;;;19.53;29.19;99681.44;4456129;32;33244;-86
2022/04/14 06:01:44;;;;;;;;;;;;;;;19.83;28.76;99675.72;4457971;32;33654;-83
2022/04/14 06:04:12;;;;;;;;;;;;;;;20.05;27.45;99686.75;4461263;32;34387;-83
2022/04/14 06:06:39;;;;;;;;;;;;;;;19.89;27.40;99680.03;4453659;32;35016;-83
2022/04/14 06:09:06;;;;;;;;;;;;;;;19.26;27.13;99678.34;4448605;32;33491;-83
2022/04/14 06:11:34;;;;;;;;;;;;;;;18.88;28.81;99679.72;4461868;32;33914;-84
2022/04/14 06:14:01;;;;;;;;;;;;;;;18.65;27.30;99668.59;4457109;32;34486;-82
2022/04/14 06:16:28;;;;;;;;;;;;;;;18.93;27.28;99675.25;4464179;32;34228;-82
2022/04/14 06:18:55;;;;;;;;;;;;;;;19.17;27.03;99673.22;4457608;32;33526;-83
2022/04/14 06:21:23;;;;;;;;;;;;;;;18.61;28.38;99683.53;4461840;32;34199;-85
2022/04/14 06:23:51;;;;;;;;;;;;;;;19.11;27.20;99678.56;4455819;32;34367;-84
2022/04/14 06:26:19;;;;;;;;;;;;;;;18.15;29.41;99693.66;4439111;32;35305;-84
2022/04/14 06:28:47;;;;;;;;;;;;;;;18.26;29.94;99694.41;4453144;32;34403;-83
2022/04/14 06:31:14;;;;;;;;;;;;;;;18.62;29.03;99682.63;4456153;32;33606;-84
2022/04/14 06:33:42;;;;;;;;;;;;;;;18.54;29.28;99681.00;4452919;32;34054;-83
2022/04/14 06:36:09;;;;;;;;;;;;;;;18.95;28.37;99678.75;4461292;32;33978;-82
2022/04/14 06:38:36;;;;;;;;;;;;;;;18.78;27.64;99685.09;4455362;32;33717;-83
2022/04/14 06:41:03;;;;;;;;;;;;;;;18.48;28.97;99677.53;4445941;32;35026;-83
2022/04/14 06:43:31;;;;;;;;;;;;;;;18.14;28.73;99684.03;4455410;32;33912;-85
2022/04/14 06:46:03;;;;;;;;;;;;;;;18.01;29.88;99691.16;4457217;32;33996;-85
2022/04/14 06:48:31;;;;;;;;;;;;;;;17.59;29.74;99687.09;4459468;32;33603;-84
2022/04/14 06:50:59;;;;;;;;;;;;;;;18.15;27.14;99680.53;4462720;32;33962;-83
2022/04/14 06:53:27;;;;;;;;;;;;;;;17.46;28.19;99689.81;4446681;32;34368;-84
2022/04/14 06:55:54;;;;;;;;;;;;;;;17.59;27.46;99684.47;4461809;32;32557;-84
2022/04/14 06:58:21;;;;;;;;;;;;;;;18.53;26.28;99679.25;4461604;32;31917;-84
2022/04/14 07:00:48;;;;;;;;;;;;;;;18.27;26.23;99684.78;4464890;32;33825;-82
2022/04/14 07:03:16;;;;;;;;;;;;;;;17.93;24.86;99680.72;4458883;32;34012;-83
2022/04/14 07:05:44;;;;;;;;;;;;;;;17.27;27.38;99690.78;4453036;32;34118;-84
2022/04/14 07:08:11;;;;;;;;;;;;;;;17.90;27.76;99687.75;4466715;32;33256;-84
2022/04/14 07:10:38;;;;;;;;;;;;;;;17.60;27.46;99683.59;4468300;32;33912;-85
2022/04/14 07:13:10;;;;;;;;;;;;;;;17.82;25.58;99682.56;4453905;32;35136;-84
2022/04/14 07:15:37;;;;;;;;;;;;;;;17.03;27.61;99686.56;4462582;32;34284;-85
2022/04/14 07:18:05;;;;;;;;;;;;;;;17.21;27.49;99688.22;4456273;32;34479;-84
2022/04/14 07:20:32;;;;;;;;;;;;;;;17.79;26.20;99685.22;4457241;32;33929;-84
2022/04/14 07:23:02;;;;;;;;;;;;;;;18.50;25.19;99695.03;4455254;32;35120;-85
2022/04/14 07:25:32;;;;;;;;;;;;;;;18.01;26.13;99685.03;4461182;32;35717;-85
2022/04/14 07:28:00;;;;;;;;;;;;;;;18.86;24.44;99683.25;4454247;32;33653;-84
2022/04/14 07:30:27;;;;;;;;;;;;;;;19.63;23.54;99680.44;4451414;32;33672;-82
2022/04/14 07:32:55;;;;;;;;;;;;;;;18.67;24.49;99680.81;4444350;32;34406;-83
2022/04/14 07:35:25;;;;;;;;;;;;;;;19.50;23.73;99682.34;4467875;32;34822;-84
2022/04/14 07:37:52;;;;;;;;;;;;;;;19.08;23.87;99679.44;4463716;32;34306;-85
2022/04/14 07:40:19;;;;;;;;;;;;;;;19.02;23.46;99687.44;4462747;32;35037;-82
2022/04/14 07:42:47;;;;;;;;;;;;;;;18.41;25.38;99690.75;4452349;32;34385;-75
2022/04/14 07:45:17;;;;;;;;;;;;;;;18.19;24.01;99693.59;4452393;32;34049;-84
2022/04/14 07:47:45;;;;;;;;;;;;;;;19.12;23.61;99685.53;4458583;32;34052;-82
2022/04/14 07:50:13;;;;;;;;;;;;;;;20.75;21.79;99681.06;4461338;32;33831;-80
2022/04/14 07:52:46;;;;;;;;;;;;;;;18.81;21.26;99683.31;4460565;32;34402;-81
2022/04/14 07:55:17;;;;;;;;;;;;;;;18.95;20.36;99683.16;4467502;32;34513;-82
2022/04/14 07:57:45;;;;;;;;;;;;;;;20.32;21.02;99685.38;4467778;32;33628;-82
2022/04/14 08:00:12;;;;;;;;;;;;;;;21.31;21.22;99679.84;4468004;32;33699;-82
2022/04/14 08:02:47;;;;;;;;;;;;;;;20.55;20.13;99677.06;4454725;32;35350;-82
2022/04/14 08:05:14;;;;;;;;;;;;;;;19.60;21.15;99694.47;4457606;32;34421;-82
2022/04/14 08:07:41;;;;;;;;;;;;;;;20.02;20.27;99685.94;4464130;32;33417;-80
2022/04/14 08:10:09;;;;;;;;;;;;;;;20.81;18.92;99689.72;4445565;32;34415;-82
2022/04/14 08:12:36;;;;;;;;;;;;;;;20.38;18.70;99697.56;4466807;32;34215;-82
2022/04/14 08:15:04;;;;;;;;;;;;;;;20.44;18.12;99686.91;4467802;32;34948;-82
2022/04/14 08:17:33;;;;;;;;;;;;;;;20.45;18.94;99688.63;4467770;32;33844;-82
2022/04/14 08:20:00;;;;;;;;;;;;;;;19.31;18.82;99692.28;4464157;32;34355;-82
2022/04/14 08:22:41;;;;;;;;;;;;;;;20.19;19.22;99689.13;4452480;32;34202;-81
2022/04/14 08:25:09;;;;;;;;;;;;;;;20.50;19.18;99692.09;4458569;32;34282;-83
2022/04/14 08:27:36;;;;;;;;;;;;;;;21.01;18.82;99693.72;4459599;32;33666;-80
2022/04/14 08:30:04;;;;;;;;;;;;;;;21.30;17.94;99683.38;4463759;32;34182;-85
2022/04/14 08:32:31;;;;;;;;;;;;;;;20.38;18.72;99689.66;4454178;32;34271;-81
2022/04/14 08:34:58;;;;;;;;;;;;;;;19.28;19.73;99686.19;4453892;32;34595;-86
2022/04/14 08:37:25;;;;;;;;;;;;;;;19.78;20.51;99688.09;4446541;32;33719;-81
2022/04/14 08:39:57;;;;;;;;;;;;;;;19.81;19.44;99687.16;4457141;32;34208;-80
2022/04/14 08:42:26;;;;;;;;;;;;;;;21.00;18.97;99694.63;4458550;32;33787;-81
2022/04/14 08:44:55;;;;;;;;;;;;;;;21.58;18.05;99682.78;4456681;32;33983;-82
2022/04/14 08:47:23;;;;;;;;;;;;;;;21.66;19.39;99683.44;4441755;32;33754;-82
2022/04/14 08:49:50;;;;;;;;;;;;;;;21.38;18.68;99685.88;4453889;32;34035;-82
2022/04/14 08:52:18;;;;;;;;;;;;;;;19.97;19.29;99690.44;4445002;32;33917;-81
2022/04/14 08:54:45;;;;;;;;;;;;;;;19.96;19.52;99688.66;4441879;32;34520;-81
2022/04/14 08:57:15;;;;;;;;;;;;;;;20.08;19.08;99691.09;4463984;32;33300;-81
2022/04/14 08:59:43;;;;;;;;;;;;;;;20.64;18.38;99682.16;4464863;32;34761;-80
2022/04/14 09:02:16;;;;;;;;;;;;;;;20.89;18.45;99687.78;4455453;32;33704;-82
2022/04/14 09:04:44;;;;;;;;;;;;;;;19.90;18.88;99689.66;4440213;32;33817;-80
2022/04/14 09:07:11;;;;;;;;;;;;;;;20.76;18.48;99680.16;4460579;32;34485;-82
2022/04/14 09:09:39;;;;;;;;;;;;;;;20.04;18.92;99681.50;4465867;32;35199;-81
2022/04/14 09:12:07;;;;;;;;;;;;;;;19.43;19.39;99691.22;4456092;32;35282;-82
2022/04/14 09:14:34;;;;;;;;;;;;;;;19.55;19.26;99691.06;4440225;32;34272;-85
2022/04/14 09:17:04;;;;;;;;;;;;;;;20.22;19.47;99696.97;4458276;32;33580;-82
2022/04/14 09:19:32;;;;;;;;;;;;;;;19.83;19.12;99696.78;4464607;32;35021;-81
2022/04/14 09:22:00;;;;;;;;;;;;;;;19.67;19.40;99690.03;4446803;32;34354;-80
2022/04/14 09:24:47;;;;;;;;;;;;;;;19.67;19.79;99685.62;4440253;32;34342;-81
2022/04/14 09:27:31;;;;;;;;;;;;;;;20.76;18.95;99678.41;4457652;32;33417;-79
2022/04/14 09:29:59;;;;;;;;;;;;;;;20.88;18.63;99688.69;4456479;32;34337;-79
2022/04/14 09:32:31;;;;;;;;;;;;;;;20.02;19.29;99686.81;4456034;32;35517;-80
2022/04/14 09:34:59;;;;;;;;;;;;;;;20.39;18.54;99684.38;4440353;32;33860;-81
2022/04/14 09:37:27;;;;;;;;;;;;;;;20.36;18.37;99686.19;4445257;32;33596;-81
2022/04/14 09:40:02;;;;;;;;;;;;;;;20.79;17.43;99685.38;4463852;32;34099;-79
2022/04/14 09:42:30;;;;;;;;;;;;;;;20.42;18.04;99680.81;4467787;32;35341;-81
2022/04/14 09:45:15;;;;;;;;;;;;;;;20.13;17.74;99679.59;4459933;32;34122;-80
2022/04/14 09:48:03;;;;;;;;;;;;;;;20.75;16.97;99674.03;4452841;32;33754;-81
2022/04/14 09:50:34;;;;;;;;;;;;;;;20.83;16.63;99672.09;4463786;32;35163;-85
2022/04/14 09:53:06;;;;;;;;;;;;;;;21.43;16.04;99672.59;4449824;32;34309;-84
2022/04/14 09:55:34;;;;;;;;;;;;;;;21.73;16.13;99670.97;4458162;32;34278;-83
2022/04/14 09:58:06;;;;;;;;;;;;;;;22.01;16.05;99661.47;4458958;32;32377;-81
2022/04/14 10:00:37;;;;;;;;;;;;;;;21.77;16.00;99665.59;4454882;32;35097;-81
2022/04/14 10:03:10;;;;;;;;;;;;;;;22.06;15.90;99664.84;4457598;32;35136;-81
2022/04/14 10:05:39;;;;;;;;;;;;;;;22.45;15.97;99661.19;4451513;32;35256;-82
2022/04/14 10:08:09;;;;;;;;;;;;;;;21.79;16.25;99661.16;4457517;32;32974;-81
2022/04/14 10:10:39;;;;;;;;;;;;;;;22.09;16.59;99658.63;4456739;32;32955;-83
2022/04/14 10:13:07;;;;;;;;;;;;;;;22.40;15.93;99648.13;4457660;32;33938;-82
2022/04/14 10:15:35;;;;;;;;;;;;;;;21.66;16.41;99659.69;4440243;32;34462;-79
2022/04/14 10:18:06;;;;;;;;;;;;;;;21.85;17.15;99645.13;4455066;32;33322;-81
2022/04/14 10:20:38;;;;;;;;;;;;;;;22.47;16.52;99648.84;4448307;32;34341;-81
2022/04/14 10:23:05;;;;;;;;;;;;;;;22.62;16.24;99635.19;4468568;32;35309;-80
2022/04/14 10:25:33;;;;;;;;;;;;;;;23.73;15.66;99636.16;4459510;32;34918;-80
2022/04/14 10:28:00;;;;;;;;;;;;;;;22.89;15.90;99624.69;4466927;32;34455;-81
2022/04/14 10:30:27;;;;;;;;;;;;;;;22.80;16.71;99634.59;4458126;32;34351;-80
2022/04/14 10:32:58;;;;;;;;;;;;;;;23.20;15.67;99636.09;4453173;32;34499;-80
2022/04/14 10:35:26;;;;;;;;;;;;;;;23.08;16.51;99636.47;4449284;32;34354;-81
2022/04/14 10:38:00;;;;;;;;;;;;;;;23.23;15.43;99625.41;4450899;32;33798;-78
2022/04/14 10:40:27;;;;;;;;;;;;;;;24.46;14.75;99613.31;4456531;32;33853;-82
2022/04/14 10:42:55;;;;;;;;;;;;;;;23.58;15.43;99623.41;4447236;32;34604;-80
2022/04/14 10:45:23;;;;;;;;;;;;;;;23.16;15.89;99629.16;4443550;32;33954;-79
2022/04/14 10:47:50;;;;;;;;;;;;;;;23.92;15.01;99631.09;4441709;32;33308;-80
2022/04/14 10:50:20;;;;;;;;;;;;;;;23.82;15.01;99620.87;4456518;32;34659;-81
2022/04/14 10:53:00;;;;;;;;;;;;;;;24.20;16.00;99623.03;4452816;32;34157;-82
2022/04/14 10:55:35;;;;;;;;;;;;;;;24.57;15.85;99621.75;4453381;32;34566;-80
2022/04/14 10:58:02;;;;;;;;;;;;;;;23.13;16.36;99616.03;4460478;32;34147;-81
2022/04/14 11:00:35;;;;;;;;;;;;;;;22.02;17.24;99609.53;4444204;32;34116;-81
2022/04/14 11:03:09;;;;;;;;;;;;;;;23.30;18.35;99621.66;4455381;32;34313;-81
2022/04/14 11:05:49;;;;;;;;;;;;;;;23.30;16.13;99621.66;4460028;32;35061;-80
2022/04/14 11:08:21;;;;;;;;;;;;;;;23.37;16.72;99616.16;4447515;32;33434;-81
2022/04/14 11:11:07;;;;;;;;;;;;;;;22.41;16.23;99620.78;4463582;32;33828;-80
2022/04/14 11:13:53;;;;;;;;;;;;;;;23.58;16.49;99619.91;4461884;32;34437;-81
2022/04/14 11:16:39;;;;;;;;;;;;;;;22.85;16.67;99612.50;4467990;32;34726;-81
2022/04/14 11:19:18;;;;;;;;;;;;;;;22.92;16.01;99609.66;4455587;32;33532;-80
2022/04/14 11:21:58;;;;;;;;;;;;;;;22.71;16.20;99603.19;4452559;32;35204;-81
2022/04/14 11:24:40;;;;;;;;;;;;;;;22.98;16.08;99598.84;4452707;32;33957;-81
2022/04/14 11:27:18;;;;;;;;;;;;;;;24.34;14.17;99600.50;4452546;32;34108;-81
2022/04/14 11:29:48;;;;;;;;;;;;;;;23.90;15.27;99593.22;4452573;32;33708;-81
2022/04/14 11:32:34;;;;;;;;;;;;;;;23.54;15.39;99587.38;4438501;32;33953;-82
2022/04/14 11:35:21;;;;;;;;;;;;;;;24.39;16.54;99594.12;4440593;32;33851;-82
2022/04/14 11:37:49;;;;;;;;;;;;;;;24.12;14.59;99588.03;4438378;32;34317;-82
2022/04/14 11:40:17;;;;;;;;;;;;;;;24.10;15.67;99597.81;4439626;32;34453;-81
2022/04/14 11:42:48;;;;;;;;;;;;;;;24.44;14.21;99583.38;4467993;32;35038;-82
2022/04/14 11:45:22;;;;;;;;;;;;;;;25.31;13.48;99589.75;4468125;32;35240;-82
2022/04/14 11:47:51;;;;;;;;;;;;;;;23.51;14.82;99576.88;4448633;32;34347;-82
2022/04/14 11:50:23;;;;;;;;;;;;;;;23.72;15.30;99581.50;4454028;32;33360;-82
2022/04/14 11:52:56;;;;;;;;;;;;;;;24.00;15.25;99575.22;4466707;32;34921;-81
2022/04/14 11:55:53;;;;;;;;;;;;;;;23.83;15.37;99581.13;4460410;32;34498;-81
2022/04/14 11:58:20;;;;;;;;;;;;;;;23.60;15.52;99578.34;4441348;32;35285;-81
2022/04/14 12:00:48;;;;;;;;;;;;;;;23.44;15.69;99578.00;4452254;32;34445;-81
2022/04/14 12:03:16;;;;;;;;;;;;;;;23.65;14.72;99568.50;4452309;32;34480;-82
2022/04/14 12:05:50;;;;;;;;;;;;;;;23.05;15.90;99575.75;4438515;32;34779;-81
2022/04/14 12:08:18;;;;;;;;;;;;;;;23.24;15.75;99571.59;4459766;32;34628;-81
2022/04/14 12:10:45;;;;;;;;;;;;;;;24.02;16.25;99562.81;4467916;32;33492;-82
2022/04/14 12:13:12;;;;;;;;;;;;;;;24.54;16.27;99563.53;4467644;32;34210;-84
2022/04/14 12:15:42;;;;;;;;;;;;;;;24.14;16.63;99564.16;4467700;32;34404;-82
2022/04/14 12:18:10;;;;;;;;;;;;;;;25.07;15.65;99551.75;4445370;32;35053;-81
2022/04/14 12:20:40;;;;;;;;;;;;;;;25.14;14.49;99553.25;4452380;32;33666;-83
2022/04/14 12:23:08;;;;;;;;;;;;;;;24.02;14.69;99552.22;4438816;32;35182;-81
2022/04/14 12:25:35;;;;;;;;;;;;;;;25.15;14.63;99541.72;4452202;32;34463;-80
2022/04/14 12:28:03;;;;;;;;;;;;;;;25.07;13.90;99533.19;4452550;32;35183;-82
2022/04/14 12:30:31;;;;;;;;;;;;;;;25.56;13.38;99531.16;4454039;32;34176;-83
2022/04/14 12:33:02;;;;;;;;;;;;;;;24.74;13.83;99531.84;4453712;32;35004;-82
2022/04/14 12:35:31;;;;;;;;;;;;;;;23.94;15.21;99523.34;4467903;32;34483;-83
2022/04/14 12:38:18;;;;;;;;;;;;;;;24.63;14.42;99523.44;4458524;32;33958;-82
2022/04/14 12:40:52;;;;;;;;;;;;;;;24.24;15.44;99516.06;4451939;32;33291;-80
2022/04/14 12:43:21;;;;;;;;;;;;;;;23.53;14.65;99512.41;4452376;32;34844;-81
2022/04/14 12:45:49;;;;;;;;;;;;;;;25.18;14.50;99515.06;4438147;32;34634;-82
2022/04/14 12:48:26;;;;;;;;;;;;;;;25.73;12.20;99502.09;4462534;32;35261;-82
2022/04/14 12:50:57;;;;;;;;;;;;;;;24.95;12.88;99502.72;4467631;32;33544;-79
2022/04/14 12:53:25;;;;;;;;;;;;;;;24.37;13.20;99508.50;4453534;32;34273;-83
2022/04/14 12:56:10;;;;;;;;;;;;;;;24.53;13.56;99495.56;4460531;32;34217;-82
2022/04/14 12:59:01;;;;;;;;;;;;;;;24.64;13.77;99496.00;4462762;32;35472;-81